Time;durP1;ratioP1;P1;durP2;ratioP2;P2;SDS_P1;SDS_P2;PMS_P1;PMS_P2;Temp;Humidity;BMP_temperature;BMP_pressure;BME280_temperature;BME280_humidity;BME280_pressure;Samples;Min_cycle;Max_cycle;Signal;HPM_P1;HPM_P2
2022/08/05 00:02:07;;;;;;;11.35;5.40;;;18.50;99.90;;;;;;5080341;28;20094;-72
2022/08/05 00:04:33;;;;;;;12.00;6.28;;;18.40;99.90;;;;;;5066655;28;20476;-70
2022/08/05 00:06:59;;;;;;;12.70;6.05;;;18.40;99.90;;;;;;5067841;28;20471;-71
2022/08/05 00:09:25;;;;;;;8.27;4.18;;;18.40;99.90;;;;;;5043227;28;20097;-70
2022/08/05 00:11:51;;;;;;;10.68;4.32;;;18.40;99.90;;;;;;5074696;28;20040;-70
2022/08/05 00:14:16;;;;;;;10.05;5.30;;;18.50;99.90;;;;;;5077997;28;20109;-71
2022/08/05 00:16:45;;;;;;;8.27;4.15;;;18.50;99.90;;;;;;5085905;28;20036;-71
2022/08/05 00:19:11;;;;;;;8.55;4.30;;;18.50;99.90;;;;;;5069128;28;20102;-75
2022/08/05 00:21:37;;;;;;;9.23;5.25;;;18.50;99.90;;;;;;5092175;28;20495;-71
2022/08/05 00:24:03;;;;;;;11.18;5.13;;;18.40;99.90;;;;;;5092069;28;20044;-71
2022/08/05 00:26:29;;;;;;;9.57;5.75;;;18.40;99.90;;;;;;5092508;28;20170;-73
2022/08/05 00:28:55;;;;;;;9.95;5.28;;;18.40;99.90;;;;;;5091969;28;20119;-71
2022/08/05 00:31:20;;;;;;;10.13;6.13;;;18.40;99.90;;;;;;5067477;28;20048;-72
2022/08/05 00:33:46;;;;;;;8.13;4.22;;;18.40;99.90;;;;;;5092238;28;20543;-71
2022/08/05 00:36:13;;;;;;;11.70;6.00;;;18.30;99.90;;;;;;5070139;28;20054;-74
2022/08/05 00:38:39;;;;;;;9.30;4.13;;;18.40;99.90;;;;;;5077815;28;20084;-71
2022/08/05 00:41:06;;;;;;;9.02;5.50;;;18.40;99.90;;;;;;5096092;28;20119;-71
2022/08/05 00:43:33;;;;;;;10.30;5.80;;;18.40;99.90;;;;;;5077847;28;20052;-71
2022/08/05 00:45:59;;;;;;;9.10;4.32;;;18.50;99.90;;;;;;5077533;28;20372;-71
2022/08/05 00:48:25;;;;;;;9.23;5.88;;;18.50;99.90;;;;;;5077085;28;20038;-72
2022/08/05 00:50:51;;;;;;;11.52;6.65;;;18.50;99.90;;;;;;5077629;28;20390;-71
2022/08/05 00:53:21;;;;;;;10.20;5.93;;;18.50;99.90;;;;;;5040807;28;20075;-71
2022/08/05 00:55:47;;;;;;;10.05;6.07;;;18.50;99.90;;;;;;5081167;28;20060;-71
2022/08/05 00:58:17;;;;;;;8.63;5.18;;;18.50;99.90;;;;;;5084863;28;20048;-73
2022/08/05 01:00:44;;;;;;;8.45;4.95;;;18.50;99.90;;;;;;5077289;28;20059;-72
2022/08/05 01:03:10;;;;;;;8.07;4.30;;;18.50;99.90;;;;;;5077440;28;20483;-72
2022/08/05 01:05:36;;;;;;;11.10;7.50;;;18.60;99.90;;;;;;5051779;28;20086;-71
2022/08/05 01:08:02;;;;;;;13.70;6.75;;;18.60;99.90;;;;;;5054851;28;20048;-71
2022/08/05 01:10:35;;;;;;;12.70;5.95;;;18.60;99.90;;;;;;5077229;28;20128;-72
2022/08/05 01:13:12;;;;;;;12.27;7.65;;;18.60;99.90;;;;;;5076994;28;20123;-72
2022/08/05 01:15:45;;;;;;;7.75;5.15;;;18.60;99.90;;;;;;5061047;28;20138;-71
2022/08/05 01:18:24;;;;;;;12.07;6.45;;;18.50;99.90;;;;;;5059939;28;20048;-72
2022/08/05 01:21:02;;;;;;;9.63;5.75;;;18.60;99.90;;;;;;5060474;28;20088;-72
2022/08/05 01:24:16;;;;;;;10.52;6.43;;;18.60;99.90;;;;;;5077103;28;20094;-73
2022/08/05 01:27:18;;;;;;;10.15;6.22;;;18.60;99.90;;;;;;5011357;28;20061;-72
2022/08/05 01:29:51;;;;;;;9.65;6.07;;;18.60;99.90;;;;;;5060206;28;20048;-72
2022/08/05 01:32:21;;;;;;;10.10;6.30;;;18.60;99.90;;;;;;5095076;28;20597;-72
2022/08/05 01:35:18;;;;;;;10.52;6.60;;;18.60;99.90;;;;;;5076047;28;20167;-72
2022/08/05 01:37:48;;;;;;;12.05;6.80;;;18.60;99.90;;;;;;5072732;28;20410;-72
2022/08/05 01:40:16;;;;;;;7.07;3.35;;;18.60;99.90;;;;;;5047715;28;20149;-72
2022/08/05 01:42:43;;;;;;;11.52;5.78;;;18.50;99.90;;;;;;5076484;28;20092;-72
2022/08/05 01:45:10;;;;;;;7.72;4.10;;;18.50;99.90;;;;;;5094590;28;20040;-72
2022/08/05 01:47:38;;;;;;;8.82;6.05;;;18.60;99.90;;;;;;5061755;28;20036;-72
2022/08/05 01:50:06;;;;;;;9.77;6.65;;;18.50;99.90;;;;;;5059999;28;20093;-72
2022/08/05 01:52:35;;;;;;;10.65;6.32;;;18.60;99.90;;;;;;5076386;28;20055;-72
2022/08/05 01:55:04;;;;;;;11.48;6.07;;;18.60;99.90;;;;;;5076587;28;20058;-72
2022/08/05 01:57:36;;;;;;;11.73;5.35;;;18.60;99.90;;;;;;5059280;28;20157;-72
2022/08/05 02:00:04;;;;;;;11.45;6.57;;;18.60;99.90;;;;;;5060258;28;20403;-72
2022/08/05 02:02:31;;;;;;;12.20;6.90;;;18.60;99.90;;;;;;5058790;28;20048;-77
2022/08/05 02:05:02;;;;;;;11.88;7.38;;;18.60;99.90;;;;;;5075870;28;20144;-72
2022/08/05 02:07:29;;;;;;;12.88;7.32;;;18.60;99.90;;;;;;5076068;28;20564;-72
2022/08/05 02:09:55;;;;;;;10.93;6.13;;;18.60;99.90;;;;;;5059268;28;20055;-74
2022/08/05 02:12:33;;;;;;;10.02;6.28;;;18.60;99.90;;;;;;5059357;28;20044;-73
2022/08/05 02:15:26;;;;;;;9.02;5.40;;;18.60;99.90;;;;;;5075927;28;20124;-72
2022/08/05 02:18:02;;;;;;;9.05;5.10;;;18.60;99.90;;;;;;5070022;28;20337;-72
2022/08/05 02:20:34;;;;;;;8.85;5.72;;;18.50;99.90;;;;;;5059547;28;20048;-72
2022/08/05 02:23:08;;;;;;;11.45;8.02;;;18.60;99.90;;;;;;5075392;28;20478;-72
2022/08/05 02:25:35;;;;;;;13.20;6.75;;;18.50;99.90;;;;;;5076245;28;20055;-71
2022/08/05 02:28:04;;;;;;;9.52;6.18;;;18.60;99.90;;;;;;5075756;28;20500;-72
2022/08/05 02:30:36;;;;;;;9.77;5.18;;;18.60;99.90;;;;;;5059433;28;20087;-71
2022/08/05 02:33:03;;;;;;;10.88;5.70;;;18.60;99.90;;;;;;5075208;28;20052;-71
2022/08/05 02:35:32;;;;;;;12.07;7.30;;;18.60;99.90;;;;;;5091910;28;20498;-72
2022/08/05 02:37:59;;;;;;;10.27;5.75;;;18.50;99.90;;;;;;5090103;28;20097;-72
2022/08/05 02:40:25;;;;;;;9.70;5.40;;;18.60;99.90;;;;;;5075643;28;20052;-72
2022/08/05 02:42:52;;;;;;;11.93;7.03;;;18.60;99.90;;;;;;5075735;28;20055;-72
2022/08/05 02:45:20;;;;;;;12.48;8.18;;;18.60;99.90;;;;;;5075896;28;20043;-71
2022/08/05 02:47:46;;;;;;;13.88;7.78;;;18.50;99.90;;;;;;5074378;28;20055;-71
2022/08/05 02:50:14;;;;;;;8.10;4.18;;;18.50;99.90;;;;;;5075652;28;20545;-71
2022/08/05 02:52:42;;;;;;;14.00;7.05;;;18.50;99.90;;;;;;5075362;28;20047;-71
2022/08/05 02:55:09;;;;;;;8.43;4.90;;;18.50;99.90;;;;;;5075397;28;20113;-71
2022/08/05 02:57:38;;;;;;;11.85;6.63;;;18.50;99.90;;;;;;5074601;28;20063;-72
2022/08/05 03:00:06;;;;;;;10.82;6.68;;;18.50;99.90;;;;;;5075698;28;20048;-72
2022/08/05 03:02:44;;;;;;;9.95;5.90;;;18.60;99.90;;;;;;5074081;28;20056;-71
2022/08/05 03:05:11;;;;;;;11.20;7.47;;;18.50;99.90;;;;;;5058800;28;20051;-73
2022/08/05 03:07:39;;;;;;;9.68;5.15;;;18.50;99.90;;;;;;5092371;28;20518;-71
2022/08/05 03:10:05;;;;;;;13.02;6.97;;;18.50;99.90;;;;;;5059142;28;20048;-72
2022/08/05 03:12:33;;;;;;;12.15;7.15;;;18.50;99.90;;;;;;5064429;28;20047;-71
2022/08/05 03:14:59;;;;;;;9.25;4.78;;;18.50;99.90;;;;;;5073279;28;20044;-72
2022/08/05 03:17:25;;;;;;;11.00;5.95;;;18.50;99.90;;;;;;5092961;28;20054;-73
2022/08/05 03:19:51;;;;;;;8.13;4.47;;;18.50;99.90;;;;;;5074253;28;20101;-72
2022/08/05 03:22:16;;;;;;;9.40;6.32;;;18.50;99.90;;;;;;5075386;28;20101;-72
2022/08/05 03:24:43;;;;;;;8.60;4.55;;;18.50;99.90;;;;;;5074422;28;20071;-71
2022/08/05 03:27:09;;;;;;;11.88;6.80;;;18.50;99.90;;;;;;5075500;28;20070;-72
2022/08/05 03:29:35;;;;;;;10.38;5.78;;;18.50;99.90;;;;;;5058347;28;20093;-72
2022/08/05 03:32:02;;;;;;;9.43;5.13;;;18.40;99.90;;;;;;5074524;28;20048;-72
2022/08/05 03:34:28;;;;;;;9.02;5.50;;;18.40;99.90;;;;;;5070109;28;20048;-71
2022/08/05 03:36:54;;;;;;;10.23;6.20;;;18.40;99.90;;;;;;5074978;28;20044;-71
2022/08/05 03:39:20;;;;;;;12.55;7.35;;;18.40;99.90;;;;;;5092498;28;20054;-71
2022/08/05 03:41:47;;;;;;;8.68;4.47;;;18.40;99.90;;;;;;5093174;28;20465;-71
2022/08/05 03:44:12;;;;;;;11.27;6.47;;;18.40;99.90;;;;;;5092370;28;20048;-71
2022/08/05 03:46:38;;;;;;;9.40;4.90;;;18.40;99.90;;;;;;5075107;28;20079;-71
2022/08/05 03:49:04;;;;;;;10.45;5.55;;;18.40;99.90;;;;;;5073575;28;20052;-72
2022/08/05 03:51:34;;;;;;;9.88;5.68;;;18.40;99.90;;;;;;5075067;28;20063;-73
2022/08/05 03:54:12;;;;;;;9.68;5.60;;;18.40;99.90;;;;;;5057429;28;20131;-77
2022/08/05 03:56:44;;;;;;;10.55;4.90;;;18.40;99.90;;;;;;5079463;28;20087;-72
2022/08/05 03:59:18;;;;;;;9.70;5.97;;;18.40;99.90;;;;;;5079843;28;20052;-73
2022/08/05 04:01:48;;;;;;;11.73;5.45;;;18.40;99.90;;;;;;5068697;28;20048;-72
2022/08/05 04:04:15;;;;;;;10.00;5.57;;;18.40;99.90;;;;;;5078507;28;20069;-72
2022/08/05 04:06:41;;;;;;;9.15;5.45;;;18.30;99.90;;;;;;5074633;28;20600;-71
2022/08/05 04:09:07;;;;;;;10.50;6.68;;;18.40;99.90;;;;;;5076422;28;20096;-72
2022/08/05 04:11:37;;;;;;;10.40;6.50;;;18.40;99.90;;;;;;5088034;28;20093;-72
2022/08/05 04:14:03;;;;;;;12.23;7.50;;;18.40;99.90;;;;;;5053430;28;20047;-71
2022/08/05 04:16:31;;;;;;;7.82;4.22;;;18.30;99.90;;;;;;5078185;28;20047;-72
2022/08/05 04:18:56;;;;;;;9.23;5.10;;;18.30;99.90;;;;;;5077468;28;20047;-72
2022/08/05 04:21:22;;;;;;;9.73;6.30;;;18.30;99.90;;;;;;5075616;28;20051;-71
2022/08/05 04:23:49;;;;;;;8.18;5.30;;;18.30;99.90;;;;;;5095811;28;20077;-71
2022/08/05 04:26:15;;;;;;;9.57;5.03;;;18.20;99.90;;;;;;5078650;28;20399;-72
2022/08/05 04:28:40;;;;;;;9.48;5.22;;;18.20;99.90;;;;;;5077831;28;20465;-74
2022/08/05 04:31:06;;;;;;;9.23;5.70;;;18.20;99.90;;;;;;5096201;28;20136;-72
2022/08/05 04:33:32;;;;;;;8.98;4.40;;;18.20;99.90;;;;;;5095967;28;20040;-72
2022/08/05 04:35:58;;;;;;;9.20;5.35;;;18.30;99.90;;;;;;5073483;28;20052;-72
2022/08/05 04:38:23;;;;;;;10.75;5.18;;;18.30;99.90;;;;;;5081132;28;20123;-71
2022/08/05 04:40:49;;;;;;;11.07;5.55;;;18.30;99.90;;;;;;5080737;28;20059;-71
2022/08/05 04:43:15;;;;;;;12.93;7.00;;;18.30;99.90;;;;;;5078401;28;20063;-72
2022/08/05 04:45:41;;;;;;;11.30;6.07;;;18.30;99.90;;;;;;5095735;28;20051;-71
2022/08/05 04:48:08;;;;;;;11.77;6.47;;;18.30;99.90;;;;;;5095560;28;20075;-72
2022/08/05 04:50:44;;;;;;;9.32;5.25;;;18.20;99.90;;;;;;5077764;28;20407;-72
2022/08/05 04:53:12;;;;;;;9.50;4.90;;;18.30;99.90;;;;;;5048609;28;20048;-71
2022/08/05 04:55:39;;;;;;;9.88;6.75;;;18.30;99.90;;;;;;5077811;28;20060;-72
2022/08/05 04:58:06;;;;;;;10.90;5.68;;;18.30;99.90;;;;;;5077547;28;20048;-71
2022/08/05 05:00:33;;;;;;;10.13;6.75;;;18.30;99.90;;;;;;5078137;28;20427;-72
2022/08/05 05:02:58;;;;;;;13.77;6.88;;;18.30;99.90;;;;;;5094952;28;20105;-71
2022/08/05 05:05:24;;;;;;;9.52;4.90;;;18.40;99.90;;;;;;5070843;28;20056;-71
2022/08/05 05:07:50;;;;;;;10.05;4.53;;;18.30;99.90;;;;;;5076783;28;20491;-71
2022/08/05 05:10:16;;;;;;;10.70;4.85;;;18.30;99.90;;;;;;5095486;28;20067;-71
2022/08/05 05:12:42;;;;;;;10.57;5.03;;;18.30;99.90;;;;;;5053918;28;20088;-72
2022/08/05 05:15:08;;;;;;;11.93;6.25;;;18.30;99.90;;;;;;5060741;28;20044;-76
2022/08/05 05:17:45;;;;;;;10.48;5.93;;;18.30;99.90;;;;;;5073097;28;20391;-72
2022/08/05 05:20:12;;;;;;;10.98;5.78;;;18.30;99.90;;;;;;5058429;28;20040;-72
2022/08/05 05:22:38;;;;;;;9.40;5.28;;;18.30;99.90;;;;;;5059429;28;20067;-72
2022/08/05 05:25:04;;;;;;;9.80;5.20;;;18.30;99.90;;;;;;5060836;28;20496;-71
2022/08/05 05:27:32;;;;;;;9.18;4.70;;;18.30;99.90;;;;;;5062309;28;20052;-72
2022/08/05 05:29:58;;;;;;;9.18;4.30;;;18.40;99.90;;;;;;5077485;28;20047;-71
2022/08/05 05:32:24;;;;;;;9.45;5.00;;;18.40;99.90;;;;;;5073604;28;20391;-74
2022/08/05 05:34:50;;;;;;;10.13;4.32;;;18.40;99.90;;;;;;5093653;28;20063;-73
2022/08/05 05:37:16;;;;;;;8.98;4.40;;;18.50;99.90;;;;;;5094977;28;20491;-71
2022/08/05 05:39:42;;;;;;;8.10;4.25;;;18.50;99.90;;;;;;5076312;28;20062;-71
2022/08/05 05:42:08;;;;;;;8.73;4.22;;;18.50;99.90;;;;;;5077362;28;20067;-71
2022/08/05 05:44:33;;;;;;;8.70;4.30;;;18.50;99.90;;;;;;5074204;28;20048;-71
2022/08/05 05:46:59;;;;;;;8.00;4.10;;;18.50;99.90;;;;;;5071988;28;20103;-71
2022/08/05 05:49:25;;;;;;;6.95;3.72;;;18.50;99.90;;;;;;5077622;28;20121;-72
2022/08/05 05:51:52;;;;;;;11.32;5.45;;;18.50;99.90;;;;;;5060771;28;20055;-72
2022/08/05 05:54:17;;;;;;;9.00;4.05;;;18.60;99.90;;;;;;5060119;28;20052;-71
2022/08/05 05:56:43;;;;;;;8.27;4.20;;;18.60;99.90;;;;;;5077098;28;20113;-71
2022/08/05 05:59:09;;;;;;;8.63;4.65;;;18.60;99.90;;;;;;5074839;28;20119;-71
2022/08/05 06:01:40;;;;;;;7.75;3.50;;;18.60;99.90;;;;;;5057060;28;20040;-72
2022/08/05 06:04:11;;;;;;;9.93;4.85;;;18.60;99.90;;;;;;5092722;28;20127;-74
2022/08/05 06:06:37;;;;;;;10.43;4.43;;;18.60;99.90;;;;;;5058591;28;20087;-72
2022/08/05 06:09:04;;;;;;;7.80;4.03;;;18.60;99.90;;;;;;5075510;28;20076;-72
2022/08/05 06:11:33;;;;;;;10.15;5.40;;;18.60;99.90;;;;;;5059787;28;20056;-71
2022/08/05 06:13:59;;;;;;;9.68;4.70;;;18.70;99.90;;;;;;5065154;28;20044;-72
2022/08/05 06:16:25;;;;;;;6.35;3.38;;;18.60;99.90;;;;;;5056456;28;20055;-72
2022/08/05 06:18:51;;;;;;;7.75;3.75;;;18.60;99.90;;;;;;5076666;28;20032;-72
2022/08/05 06:21:17;;;;;;;7.22;3.60;;;18.60;99.90;;;;;;5077613;28;20052;-72
2022/08/05 06:23:43;;;;;;;9.02;4.65;;;18.70;99.90;;;;;;5060408;28;20048;-72
2022/08/05 06:26:10;;;;;;;10.80;4.85;;;18.70;99.90;;;;;;5063389;28;20047;-71
2022/08/05 06:28:35;;;;;;;9.00;3.70;;;18.70;99.90;;;;;;5044005;28;20047;-72
2022/08/05 06:31:01;;;;;;;8.80;4.30;;;18.80;99.90;;;;;;5084211;28;20040;-72
2022/08/05 06:33:27;;;;;;;9.80;3.40;;;18.80;99.90;;;;;;5074847;28;20415;-72
2022/08/05 06:35:53;;;;;;;8.95;3.83;;;18.90;99.90;;;;;;5040892;28;20053;-71
2022/08/05 06:38:19;;;;;;;8.13;3.55;;;18.90;99.90;;;;;;5076449;28;20169;-71
2022/08/05 06:40:44;;;;;;;9.77;4.03;;;18.90;99.90;;;;;;5073058;28;20114;-72
2022/08/05 06:43:11;;;;;;;7.68;3.40;;;18.90;99.90;;;;;;5058954;28;20044;-72
2022/08/05 06:45:37;;;;;;;11.32;3.90;;;18.90;99.90;;;;;;5093837;28;20052;-72
2022/08/05 06:48:03;;;;;;;9.07;3.75;;;18.90;99.90;;;;;;5084672;28;20032;-72
2022/08/05 06:50:29;;;;;;;9.48;3.83;;;18.90;99.90;;;;;;5068815;28;20435;-72
2022/08/05 06:52:55;;;;;;;6.95;3.03;;;19.00;99.90;;;;;;5063382;28;20098;-72
2022/08/05 06:55:20;;;;;;;8.40;3.20;;;19.00;99.90;;;;;;5083130;28;20041;-72
2022/08/05 06:57:46;;;;;;;9.45;4.07;;;19.10;99.90;;;;;;5099939;28;20093;-72
2022/08/05 07:00:12;;;;;;;10.15;3.30;;;19.10;99.90;;;;;;5067238;28;20048;-72
2022/08/05 07:02:45;;;;;;;7.57;3.00;;;19.20;99.90;;;;;;5072417;28;20107;-72
2022/08/05 07:05:12;;;;;;;7.80;3.15;;;19.30;99.90;;;;;;5071064;28;20039;-73
2022/08/05 07:07:39;;;;;;;7.88;2.95;;;19.30;99.90;;;;;;4999860;28;20054;-72
2022/08/05 07:10:08;;;;;;;9.18;3.10;;;19.40;99.90;;;;;;5014447;28;20037;-72
2022/08/05 07:18:03;;;;;;;7.10;2.53;;;19.40;99.90;;;;;;5068782;28;20497;-73
2022/08/05 07:20:29;;;;;;;8.15;3.00;;;19.50;99.90;;;;;;5053290;28;20143;-72
2022/08/05 07:22:55;;;;;;;7.30;2.72;;;19.50;99.90;;;;;;5051449;28;20127;-74
2022/08/05 07:25:20;;;;;;;6.70;2.40;;;19.60;99.90;;;;;;5069470;28;20480;-72
2022/08/05 07:27:50;;;;;;;8.15;2.92;;;19.60;99.90;;;;;;5053264;28;20125;-73
2022/08/05 07:30:16;;;;;;;9.55;2.80;;;19.60;99.90;;;;;;5053196;28;20064;-73
2022/08/05 07:32:42;;;;;;;7.50;2.83;;;19.60;99.90;;;;;;5052709;28;20450;-72
2022/08/05 07:35:09;;;;;;;7.55;2.92;;;19.60;99.90;;;;;;5050930;28;20048;-72
2022/08/05 07:37:34;;;;;;;6.40;2.90;;;19.60;99.90;;;;;;5053235;28;20057;-73
2022/08/05 07:40:00;;;;;;;6.55;2.42;;;19.70;99.90;;;;;;5071127;28;20056;-72
2022/08/05 07:42:26;;;;;;;7.10;2.70;;;19.80;99.90;;;;;;5053328;28;20065;-72
2022/08/05 07:44:52;;;;;;;8.07;2.78;;;19.90;99.90;;;;;;5055630;28;20076;-72
2022/08/05 07:47:17;;;;;;;6.32;2.38;;;20.00;99.90;;;;;;5057139;28;20106;-74
2022/08/05 07:49:43;;;;;;;7.25;2.70;;;20.10;99.90;;;;;;5056992;28;20547;-72
2022/08/05 07:52:09;;;;;;;7.18;2.33;;;20.20;99.90;;;;;;5024242;28;20048;-72
2022/08/05 07:54:34;;;;;;;6.88;2.17;;;20.50;99.90;;;;;;5074386;28;20106;-74
2022/08/05 07:57:03;;;;;;;6.95;2.30;;;20.50;99.90;;;;;;5075406;28;20056;-72
2022/08/05 07:59:29;;;;;;;8.23;2.30;;;20.60;99.90;;;;;;5054428;28;20052;-71
2022/08/05 08:01:55;;;;;;;7.53;2.30;;;20.60;99.90;;;;;;5057377;28;20064;-72
2022/08/05 08:04:21;;;;;;;7.30;2.25;;;20.60;99.90;;;;;;5056046;28;20052;-71
2022/08/05 08:06:46;;;;;;;8.18;2.20;;;20.50;99.90;;;;;;5056739;28;20056;-71
2022/08/05 08:09:12;;;;;;;6.45;1.88;;;20.40;99.90;;;;;;5056902;28;20398;-71
2022/08/05 08:11:37;;;;;;;6.93;1.88;;;20.40;99.90;;;;;;5074505;28;20090;-71
2022/08/05 08:14:03;;;;;;;6.47;1.90;;;20.70;99.90;;;;;;5074847;28;20052;-71
2022/08/05 08:16:29;;;;;;;6.30;1.80;;;21.10;99.90;;;;;;5073847;28;20098;-72
2022/08/05 08:18:54;;;;;;;7.28;1.60;;;21.60;99.90;;;;;;5050659;28;20044;-72
2022/08/05 08:21:20;;;;;;;5.28;1.65;;;22.20;99.90;;;;;;5054413;28;20059;-72
2022/08/05 08:23:46;;;;;;;5.18;1.83;;;22.70;99.90;;;;;;5070174;28;20037;-72
2022/08/05 08:26:12;;;;;;;5.85;1.67;;;23.10;99.90;;;;;;5052024;28;20040;-76
2022/08/05 08:28:38;;;;;;;4.80;1.50;;;23.20;99.90;;;;;;5050880;28;20079;-73
2022/08/05 08:31:05;;;;;;;4.32;1.40;;;23.00;99.90;;;;;;5073895;28;20045;-72
2022/08/05 08:33:31;;;;;;;4.97;1.40;;;22.90;99.90;;;;;;5055951;28;20059;-76
2022/08/05 08:35:56;;;;;;;6.07;1.60;;;22.80;99.90;;;;;;5039024;28;20256;-72
2022/08/05 08:38:22;;;;;;;4.43;1.30;;;22.50;99.90;;;;;;5022798;28;20040;-73
2022/08/05 08:40:48;;;;;;;6.40;1.52;;;22.30;99.90;;;;;;5056237;28;20049;-72
2022/08/05 08:43:17;;;;;;;5.75;1.60;;;22.00;99.90;;;;;;5040277;28;20071;-72
2022/08/05 08:45:45;;;;;;;5.90;1.55;;;21.90;99.90;;;;;;5073483;28;20487;-73
2022/08/05 08:48:13;;;;;;;4.35;1.33;;;21.80;99.90;;;;;;5012784;28;20052;-76
2022/08/05 08:50:41;;;;;;;4.60;1.48;;;21.90;99.90;;;;;;5070227;28;20043;-73
2022/08/05 08:53:10;;;;;;;5.15;1.60;;;21.90;99.90;;;;;;5055285;28;20055;-76
2022/08/05 08:55:38;;;;;;;6.10;1.70;;;21.80;99.90;;;;;;5074360;28;20441;-72
2022/08/05 08:58:03;;;;;;;5.15;1.50;;;21.70;99.90;;;;;;5075694;28;20263;-72
2022/08/05 09:00:29;;;;;;;5.45;1.20;;;21.70;99.90;;;;;;5083820;28;20544;-73
2022/08/05 09:02:56;;;;;;;5.72;1.40;;;21.80;99.90;;;;;;5058022;28;20040;-73
2022/08/05 09:05:22;;;;;;;6.03;1.40;;;22.00;99.90;;;;;;5073307;28;20399;-72
2022/08/05 09:07:51;;;;;;;4.13;1.30;;;22.10;99.90;;;;;;5083771;28;20052;-73
2022/08/05 09:10:17;;;;;;;5.53;1.40;;;22.10;99.90;;;;;;5075459;28;20052;-74
2022/08/05 09:12:43;;;;;;;5.82;1.38;;;22.00;99.90;;;;;;5075122;28;20056;-74
2022/08/05 09:15:09;;;;;;;4.40;1.30;;;21.80;99.90;;;;;;5058797;28;20045;-73
2022/08/05 09:17:35;;;;;;;6.53;1.50;;;21.70;99.90;;;;;;5068437;28;20106;-73
2022/08/05 09:20:03;;;;;;;5.07;1.13;;;21.70;99.90;;;;;;5073564;28;20044;-72
2022/08/05 09:22:48;;;;;;;6.25;1.25;;;21.70;99.90;;;;;;5069134;28;20032;-77
2022/08/05 09:25:18;;;;;;;4.95;1.20;;;21.80;99.90;;;;;;5055275;28;20053;-72
2022/08/05 09:27:43;;;;;;;3.60;1.00;;;21.90;99.90;;;;;;5069440;28;20102;-73
2022/08/05 09:30:09;;;;;;;5.05;1.10;;;22.00;99.90;;;;;;5084099;28;20080;-70
2022/08/05 09:32:36;;;;;;;4.38;1.10;;;22.00;99.90;;;;;;5091095;28;20475;-73
2022/08/05 09:35:11;;;;;;;4.03;1.08;;;22.00;99.90;;;;;;5083807;28;20048;-72
2022/08/05 09:37:37;;;;;;;4.88;1.02;;;22.10;99.90;;;;;;5071013;28;20083;-79
2022/08/05 09:40:03;;;;;;;4.72;1.10;;;22.30;99.90;;;;;;5070035;28;20083;-72
2022/08/05 09:42:40;;;;;;;5.70;1.13;;;22.30;99.40;;;;;;5083187;28;20105;-74
2022/08/05 09:45:07;;;;;;;4.72;1.17;;;22.30;98.80;;;;;;5063626;28;21265;-72
2022/08/05 09:47:33;;;;;;;4.22;1.00;;;22.40;99.20;;;;;;5053559;28;20040;-72
2022/08/05 09:49:59;;;;;;;4.50;1.02;;;22.40;99.30;;;;;;5066676;28;20049;-72
2022/08/05 09:52:30;;;;;;;3.40;1.10;;;22.50;97.50;;;;;;5073681;28;20044;-73
2022/08/05 09:55:08;;;;;;;4.32;1.17;;;22.30;97.80;;;;;;5049370;28;20046;-73
2022/08/05 09:57:40;;;;;;;3.83;1.00;;;22.30;97.50;;;;;;5070453;28;20047;-72
2022/08/05 10:00:23;;;;;;;5.05;1.20;;;22.30;97.40;;;;;;5077038;28;20454;-71
2022/08/05 10:02:53;;;;;;;4.07;1.10;;;22.30;97.50;;;;;;5072131;28;20060;-72
2022/08/05 10:05:23;;;;;;;2.75;1.00;;;22.20;98.10;;;;;;5070464;28;20048;-73
2022/08/05 10:07:59;;;;;;;5.30;1.17;;;22.40;98.30;;;;;;5065923;28;20048;-72
2022/08/05 10:10:36;;;;;;;3.45;1.08;;;22.50;98.00;;;;;;5084165;28;20125;-74
2022/08/05 10:13:03;;;;;;;3.38;0.90;;;22.60;95.00;;;;;;5055318;28;20109;-72
2022/08/05 10:15:31;;;;;;;5.32;1.10;;;22.70;96.30;;;;;;5042415;28;20075;-72
2022/08/05 10:18:09;;;;;;;3.25;0.90;;;22.90;95.40;;;;;;5052658;28;20064;-72
2022/08/05 10:20:44;;;;;;;3.63;0.98;;;22.90;94.60;;;;;;5071282;28;20427;-71
2022/08/05 10:23:31;;;;;;;4.25;0.90;;;22.90;93.60;;;;;;5072488;28;20074;-71
2022/08/05 10:26:04;;;;;;;5.28;1.10;;;22.70;93.00;;;;;;5071676;28;20123;-73
2022/08/05 10:28:30;;;;;;;5.53;0.90;;;22.70;92.60;;;;;;5076045;28;20071;-72
2022/08/05 10:30:57;;;;;;;3.83;0.90;;;22.80;92.10;;;;;;5072500;28;20051;-73
2022/08/05 10:33:25;;;;;;;5.20;1.10;;;22.60;88.80;;;;;;5075338;28;20059;-71
2022/08/05 10:35:52;;;;;;;5.13;1.05;;;22.30;90.50;;;;;;5058423;28;20059;-72
2022/08/05 10:38:21;;;;;;;3.92;0.95;;;22.20;91.00;;;;;;5075293;28;20066;-72
2022/08/05 10:40:52;;;;;;;4.50;1.10;;;22.20;90.00;;;;;;5073457;28;20130;-73
2022/08/05 10:43:52;;;;;;;3.75;0.90;;;22.50;90.00;;;;;;5059130;28;20051;-73
2022/08/05 10:46:22;;;;;;;3.33;0.80;;;23.10;84.60;;;;;;5086038;28;20475;-72
2022/08/05 10:48:54;;;;;;;3.13;0.95;;;23.40;85.20;;;;;;5066301;28;20087;-72
2022/08/05 10:51:21;;;;;;;5.22;0.85;;;23.70;82.40;;;;;;5060842;28;20043;-73
2022/08/05 10:53:50;;;;;;;2.70;0.80;;;24.00;81.70;;;;;;5063947;28;20052;-72
2022/08/05 10:56:21;;;;;;;4.10;1.00;;;24.40;78.90;;;;;;5046704;28;20060;-73
2022/08/05 10:58:53;;;;;;;4.53;0.90;;;24.30;70.20;;;;;;5079846;28;20044;-72
2022/08/05 11:01:31;;;;;;;5.47;0.90;;;24.20;70.30;;;;;;5066476;28;20052;-73
2022/08/05 11:04:14;;;;;;;3.78;0.80;;;24.30;70.60;;;;;;5068768;28;20052;-75
2022/08/05 11:07:03;;;;;;;3.25;0.80;;;24.30;65.50;;;;;;5051939;28;20432;-69
2022/08/05 11:09:45;;;;;;;4.80;0.95;;;24.50;65.10;;;;;;5070140;28;20063;-74
2022/08/05 11:12:23;;;;;;;4.25;0.90;;;24.60;67.10;;;;;;5051350;28;20482;-75
2022/08/05 11:15:15;;;;;;;3.00;0.80;;;24.70;66.80;;;;;;5064116;28;20143;-74
2022/08/05 11:17:42;;;;;;;2.72;0.70;;;24.70;65.10;;;;;;5064378;28;20469;-72
2022/08/05 11:20:32;;;;;;;2.72;0.80;;;24.70;63.20;;;;;;5060921;28;20109;-71
2022/08/05 11:22:58;;;;;;;3.15;0.80;;;24.70;59.00;;;;;;5065131;28;20044;-72
2022/08/05 11:25:37;;;;;;;3.58;0.70;;;24.70;62.50;;;;;;5085111;28;20754;-74
2022/08/05 11:28:12;;;;;;;3.20;0.80;;;24.80;60.00;;;;;;5067532;28;20118;-73
2022/08/05 11:30:56;;;;;;;2.42;0.70;;;24.90;58.20;;;;;;5081523;28;20503;-74
2022/08/05 11:33:34;;;;;;;6.88;0.88;;;24.70;54.60;;;;;;5085676;28;20052;-74
2022/08/05 11:36:10;;;;;;;2.20;0.60;;;24.80;57.80;;;;;;5065123;28;20048;-72
2022/08/05 11:38:41;;;;;;;2.85;0.80;;;24.80;52.10;;;;;;5059307;28;20062;-74
2022/08/05 11:41:17;;;;;;;2.50;0.63;;;24.80;51.70;;;;;;5047210;28;20059;-73
2022/08/05 11:43:51;;;;;;;2.97;0.65;;;24.60;47.70;;;;;;5045293;28;20049;-71
2022/08/05 11:46:24;;;;;;;4.95;0.70;;;24.50;47.90;;;;;;5049939;28;20086;-74
2022/08/05 11:48:50;;;;;;;2.72;0.70;;;24.60;49.40;;;;;;5047556;28;20045;-73
2022/08/05 11:51:16;;;;;;;1.77;0.60;;;24.70;48.70;;;;;;5042398;28;20090;-73
2022/08/05 11:53:42;;;;;;;3.20;0.73;;;24.50;47.20;;;;;;5042209;28;20045;-74
2022/08/05 11:56:07;;;;;;;2.47;0.68;;;24.50;46.50;;;;;;5050002;28;20048;-75
2022/08/05 11:58:35;;;;;;;3.22;0.77;;;24.70;46.30;;;;;;5044566;28;20468;-75
2022/08/05 12:01:13;;;;;;;4.07;0.80;;;24.70;43.60;;;;;;5047363;28;20133;-72
2022/08/05 12:03:43;;;;;;;4.22;0.68;;;24.50;44.30;;;;;;5051055;28;20076;-71
2022/08/05 12:06:11;;;;;;;2.63;0.65;;;24.30;44.00;;;;;;5034528;28;20435;-72
2022/08/05 12:08:47;;;;;;;4.20;0.50;;;24.30;43.80;;;;;;5028355;28;20275;-71
2022/08/05 12:11:23;;;;;;;3.70;0.55;;;24.40;44.60;;;;;;5051479;28;20361;-72
2022/08/05 12:14:00;;;;;;;3.15;0.70;;;24.30;43.00;;;;;;5034784;28;20053;-73
2022/08/05 12:16:36;;;;;;;3.38;0.60;;;24.20;45.40;;;;;;5034395;28;20045;-73
2022/08/05 12:19:03;;;;;;;3.08;0.68;;;24.00;45.60;;;;;;5032499;28;20472;-75
2022/08/05 12:21:40;;;;;;;2.08;0.60;;;24.00;45.80;;;;;;5037503;28;20053;-75
2022/08/05 12:24:14;;;;;;;3.35;0.60;;;23.90;46.30;;;;;;5031090;28;20041;-74
2022/08/05 12:26:42;;;;;;;1.50;0.50;;;23.90;48.20;;;;;;5005460;28;20103;-73
2022/08/05 12:29:16;;;;;;;2.70;0.50;;;23.70;47.70;;;;;;5028817;28;20041;-73
2022/08/05 12:31:49;;;;;;;3.88;0.50;;;23.60;47.60;;;;;;5052651;28;20407;-77
2022/08/05 12:34:17;;;;;;;3.20;0.63;;;23.80;48.90;;;;;;5053170;28;20067;-75
2022/08/05 12:36:45;;;;;;;1.90;0.50;;;23.90;48.50;;;;;;5049143;28;20443;-73
2022/08/05 12:39:10;;;;;;;2.13;0.70;;;23.90;47.50;;;;;;5034627;28;20115;-73
2022/08/05 12:41:38;;;;;;;2.72;0.70;;;23.80;49.20;;;;;;5043054;28;20484;-71
2022/08/05 12:44:07;;;;;;;3.20;0.73;;;24.00;50.70;;;;;;5051352;28;20048;-74
2022/08/05 12:46:34;;;;;;;3.40;0.70;;;23.90;49.70;;;;;;5050994;28;20057;-76
2022/08/05 12:49:05;;;;;;;3.22;0.70;;;23.50;48.80;;;;;;5049460;28;20042;-74
2022/08/05 12:51:31;;;;;;;3.17;0.70;;;23.30;49.30;;;;;;5051317;28;20081;-76
2022/08/05 12:54:02;;;;;;;3.55;0.70;;;23.30;51.00;;;;;;5051829;28;20485;-74
2022/08/05 12:56:29;;;;;;;2.22;0.70;;;23.40;50.10;;;;;;5028242;28;20049;-74
2022/08/05 12:59:16;;;;;;;2.67;0.65;;;23.60;51.30;;;;;;5021166;28;20114;-79